Du har inga inställningar för hoppväder.nu

Hoppväder.nu

Senast uppdaterat 02:15

UTC-tid

2018-01-17 kl. 01:15


Sol och måne

Solen går upp 8:15 och går ner 15:39 (beräknade cirkatider)
Nästa fullmåne blir om 14 dagar (2018-01-31)

METAR

ESSV (Visby)
(25 minuter sedan)
ESSV 170050Z AUTO 14016KT 4200 -SN OVC006/// M01/M01 Q0986 REFZUP=















TAF

ESSV (Visby)
(285 minuter sedan)
ESSV 162030Z 1621/1623 15016KT 2500 -SN BKN006 TEMPO 1621/1623 5000 -SNRA BKN015=





Kodnycklar till TAF och METAR






LHP

(Visby är område H2a i Sydöstra delen)

Prognos är inte uppdaterad




Spotting

Hur fungerar spotthjälpen och Vindkartan?

Markvind är ca 0 m/s.



Vindkartan

Senast uppdaterad 02:15



All data kommer från LFV.se